Time;durP1;ratioP1;P1;durP2;ratioP2;P2;SDS_P1;SDS_P2;PMS_P1;PMS_P2;Temp;Humidity;BMP_temperature;BMP_pressure;BME280_temperature;BME280_humidity;BME280_pressure;Samples;Min_cycle;Max_cycle;Signal;HPM_P1;HPM_P2
2021/12/28 00:01:11;;;;;;;6.80;3.10;;;;;4.40;96795.60;;;;109007;1272;41166;-67
2021/12/28 00:03:43;;;;;;;7.20;3.40;;;;;4.40;96792.40;;;;109403;1273;41135;-67
2021/12/28 00:06:13;;;;;;;7.80;2.90;;;;;4.34;96797.20;;;;109184;1274;41468;-66
2021/12/28 00:08:42;;;;;;;7.30;3.20;;;;;4.30;96796.00;;;;109014;1274;41155;-66
2021/12/28 00:11:12;;;;;;;6.80;2.90;;;;;4.30;96797.40;;;;109264;1274;41140;-66
2021/12/28 00:13:44;;;;;;;6.80;2.90;;;;;4.26;96799.60;;;;108958;1275;41148;-66
2021/12/28 00:19:02;;;;;;;5.10;2.50;;;;;4.20;96804.20;;;;109332;1274;41252;-67
2021/12/28 00:21:31;;;;;;;5.20;2.40;;;;;4.12;96801.40;;;;109114;1275;41131;-69
2021/12/28 00:24:01;;;;;;;6.10;2.70;;;;;4.14;96802.60;;;;109219;1272;41980;-68
2021/12/28 00:26:31;;;;;;;5.40;2.50;;;;;4.10;96806.40;;;;109448;1272;42306;-69
2021/12/28 00:29:00;;;;;;;5.60;2.50;;;;;4.10;96806.40;;;;109236;1273;41144;-67
2021/12/28 00:31:29;;;;;;;5.30;2.60;;;;;4.10;96811.80;;;;109118;1274;41169;-66
2021/12/28 00:33:58;;;;;;;5.80;2.40;;;;;4.10;96819.00;;;;109168;1274;41155;-68
2021/12/28 00:36:28;;;;;;;5.50;2.40;;;;;4.10;96821.60;;;;109139;1274;41637;-67
2021/12/28 00:38:57;;;;;;;4.70;2.40;;;;;4.10;96819.60;;;;109121;1274;42395;-67
2021/12/28 00:41:27;;;;;;;4.80;2.40;;;;;4.08;96820.20;;;;109285;1273;41370;-70
2021/12/28 00:43:56;;;;;;;6.10;2.60;;;;;4.04;96818.00;;;;109395;1273;41209;-67
2021/12/28 00:46:25;;;;;;;4.90;2.40;;;;;4.06;96811.60;;;;109452;1273;41166;-66
2021/12/28 00:48:54;;;;;;;5.40;2.40;;;;;4.00;96814.40;;;;109277;1274;41126;-67
2021/12/28 00:51:24;;;;;;;5.80;2.60;;;;;4.00;96811.60;;;;107873;1274;1620615;-67
2021/12/28 00:53:53;;;;;;;5.20;2.40;;;;;4.08;96816.80;;;;109128;1275;41128;-71
2021/12/28 00:56:22;;;;;;;4.10;2.10;;;;;4.10;96818.40;;;;109233;1273;41142;-65
2021/12/28 00:58:52;;;;;;;4.90;2.30;;;;;4.10;96816.40;;;;108978;1275;41401;-67
2021/12/28 01:01:22;;;;;;;4.10;2.20;;;;;4.10;96816.80;;;;108912;1273;41221;-67
2021/12/28 01:03:52;;;;;;;4.60;2.30;;;;;4.10;96816.80;;;;108860;1275;41442;-69
2021/12/28 01:06:22;;;;;;;4.60;2.30;;;;;4.10;96820.20;;;;109319;1273;41158;-67
2021/12/28 01:08:52;;;;;;;3.80;2.00;;;;;4.10;96818.40;;;;109076;1275;41258;-70
2021/12/28 01:11:21;;;;;;;3.80;2.00;;;;;4.10;96820.20;;;;109118;1272;42620;-66
2021/12/28 01:13:50;;;;;;;3.30;2.00;;;;;4.12;96827.00;;;;109162;1274;41560;-66
2021/12/28 01:16:19;;;;;;;4.70;2.20;;;;;4.16;96820.60;;;;109128;1274;41619;-66
2021/12/28 01:18:48;;;;;;;3.80;2.00;;;;;4.16;96824.00;;;;109129;1275;42347;-67
2021/12/28 01:21:19;;;;;;;4.10;2.10;;;;;4.12;96823.60;;;;109412;1273;42884;-66
2021/12/28 01:23:48;;;;;;;5.10;2.30;;;;;4.20;96825.60;;;;109072;1274;41542;-66
2021/12/28 01:26:17;;;;;;;5.20;2.40;;;;;4.20;96828.20;;;;109025;1276;41138;-67
2021/12/28 01:28:47;;;;;;;3.90;2.10;;;;;4.10;96829.40;;;;109332;1275;41144;-67
2021/12/28 01:31:16;;;;;;;4.20;2.10;;;;;4.10;96823.80;;;;109189;1274;41701;-66
2021/12/28 01:33:46;;;;;;;4.30;2.30;;;;;4.14;96825.00;;;;109137;1274;41226;-66
2021/12/28 01:36:15;;;;;;;4.80;2.20;;;;;4.14;96827.60;;;;109162;1274;41157;-66
2021/12/28 01:38:47;;;;;;;4.40;2.40;;;;;4.18;96827.00;;;;109350;1274;41586;-66
2021/12/28 01:41:17;;;;;;;4.70;2.30;;;;;4.10;96830.60;;;;109105;1275;41363;-69
2021/12/28 01:43:47;;;;;;;5.20;2.40;;;;;4.10;96828.20;;;;109110;1274;41231;-66
2021/12/28 01:46:17;;;;;;;5.00;2.30;;;;;4.10;96828.00;;;;109070;1274;41233;-67
2021/12/28 01:48:47;;;;;;;5.20;2.20;;;;;4.10;96825.80;;;;109458;1274;41346;-67
2021/12/28 01:51:20;;;;;;;5.00;2.30;;;;;4.10;96826.20;;;;109339;1273;41112;-66
2021/12/28 01:53:55;;;;;;;5.50;2.30;;;;;4.14;96824.00;;;;109207;1275;41135;-66
2021/12/28 01:56:29;;;;;;;5.60;2.10;;;;;4.10;96820.40;;;;109262;1275;42226;-67
2021/12/28 01:59:00;;;;;;;6.30;2.40;;;;;4.10;96830.60;;;;109105;1275;41140;-65
2021/12/28 02:01:31;;;;;;;5.20;2.30;;;;;4.14;96829.20;;;;109156;1273;41253;-66
2021/12/28 02:04:17;;;;;;;5.20;2.40;;;;;4.10;96830.20;;;;109107;1273;41607;-66
2021/12/28 02:06:47;;;;;;;4.80;2.20;;;;;4.10;96832.60;;;;109205;1274;41512;-67
2021/12/28 02:09:18;;;;;;;5.30;2.40;;;;;4.10;96837.60;;;;109418;1273;41201;-69
2021/12/28 02:11:48;;;;;;;4.50;2.30;;;;;4.10;96839.60;;;;109102;1274;41932;-66
2021/12/28 02:14:18;;;;;;;5.00;2.30;;;;;4.14;96838.40;;;;109373;1273;41178;-66
2021/12/28 02:16:48;;;;;;;5.30;2.40;;;;;4.18;96834.40;;;;109166;1274;41626;-68
2021/12/28 02:19:18;;;;;;;4.70;2.20;;;;;4.20;96839.60;;;;109187;1273;41151;-66
2021/12/28 02:21:49;;;;;;;5.30;2.40;;;;;4.20;96843.40;;;;109302;1274;41686;-69
2021/12/28 02:24:20;;;;;;;4.70;2.30;;;;;4.20;96847.60;;;;109036;1273;41173;-68
2021/12/28 02:26:50;;;;;;;5.20;2.40;;;;;4.20;96843.80;;;;109238;1274;41138;-66
2021/12/28 02:29:20;;;;;;;4.50;2.30;;;;;4.12;96842.20;;;;109319;1275;41477;-67
2021/12/28 02:31:55;;;;;;;4.80;2.20;;;;;4.10;96843.40;;;;109460;1273;41165;-67
2021/12/28 02:34:26;;;;;;;5.10;2.30;;;;;4.10;96846.80;;;;108855;1275;41423;-66
2021/12/28 02:36:57;;;;;;;5.90;2.30;;;;;4.10;96842.20;;;;109157;1273;41796;-66
2021/12/28 02:39:27;;;;;;;6.20;2.50;;;;;4.10;96840.00;;;;109258;1274;41934;-69
2021/12/28 02:41:56;;;;;;;7.00;2.60;;;;;4.10;96840.80;;;;109450;1273;41241;-66
2021/12/28 02:44:27;;;;;;;5.80;2.50;;;;;4.10;96846.00;;;;109476;1273;40776;-66
2021/12/28 02:46:56;;;;;;;5.10;2.50;;;;;4.10;96838.60;;;;109144;1274;41131;-67
2021/12/28 02:49:26;;;;;;;5.80;2.70;;;;;4.10;96843.00;;;;109420;1273;41128;-69
2021/12/28 02:51:56;;;;;;;5.10;2.40;;;;;4.00;96839.20;;;;109391;1273;41354;-67
2021/12/28 02:54:25;;;;;;;5.70;2.50;;;;;4.00;96837.60;;;;109381;1274;40730;-67
2021/12/28 02:56:55;;;;;;;5.20;2.40;;;;;3.98;96839.20;;;;109493;1274;41325;-67
2021/12/28 02:59:24;;;;;;;5.80;2.40;;;;;3.92;96845.20;;;;109333;1273;41128;-67
2021/12/28 03:01:55;;;;;;;5.90;2.60;;;;;3.90;96837.60;;;;109098;1274;41252;-66
2021/12/28 03:04:27;;;;;;;5.40;2.60;;;;;3.90;96840.40;;;;108921;1273;41952;-67
2021/12/28 03:06:57;;;;;;;6.30;2.50;;;;;3.90;96836.60;;;;109087;1272;41726;-66
2021/12/28 03:09:27;;;;;;;5.70;2.50;;;;;3.90;96838.80;;;;109219;1274;41140;-67
2021/12/28 03:11:56;;;;;;;4.90;2.20;;;;;3.90;96840.60;;;;109446;1273;41835;-67
2021/12/28 03:14:25;;;;;;;5.80;2.70;;;;;3.90;96845.40;;;;109391;1273;41726;-66
2021/12/28 03:16:55;;;;;;;6.50;2.80;;;;;3.90;96845.00;;;;109385;1273;41467;-67
2021/12/28 03:19:25;;;;;;;5.50;2.50;;;;;3.82;96845.80;;;;109009;1274;41132;-67
2021/12/28 03:21:54;;;;;;;6.10;2.70;;;;;3.82;96843.40;;;;109087;1275;41141;-67
2021/12/28 03:24:24;;;;;;;5.40;2.50;;;;;3.80;96847.60;;;;109062;1273;41190;-67
2021/12/28 03:26:54;;;;;;;5.70;2.60;;;;;3.80;96852.40;;;;109369;1273;41246;-67
2021/12/28 03:29:24;;;;;;;6.30;2.70;;;;;3.80;96847.40;;;;109360;1275;41574;-67
2021/12/28 03:31:55;;;;;;;6.50;2.90;;;;;3.80;96848.40;;;;109238;1274;41947;-67
2021/12/28 03:34:25;;;;;;;4.80;2.30;;;;;3.80;96849.00;;;;109303;1274;41262;-66
2021/12/28 03:36:55;;;;;;;6.20;2.50;;;;;3.80;96844.40;;;;109392;1274;41134;-67
2021/12/28 03:39:25;;;;;;;5.00;2.50;;;;;3.80;96848.40;;;;108998;1275;41135;-65
2021/12/28 03:41:54;;;;;;;5.60;2.50;;;;;3.80;96851.40;;;;109154;1274;41251;-68
2021/12/28 03:44:24;;;;;;;5.40;2.40;;;;;3.80;96843.60;;;;109131;1275;41161;-67
2021/12/28 03:46:54;;;;;;;4.70;2.30;;;;;3.80;96847.20;;;;109338;1274;41590;-66
2021/12/28 03:49:23;;;;;;;5.50;2.80;;;;;3.80;96851.00;;;;109327;1273;41755;-66
2021/12/28 03:51:53;;;;;;;6.80;2.70;;;;;3.70;96855.40;;;;109106;1274;41130;-66
2021/12/28 03:54:22;;;;;;;6.00;2.70;;;;;3.66;96859.80;;;;109360;1273;41138;-67
2021/12/28 03:56:51;;;;;;;5.70;2.70;;;;;3.60;96862.00;;;;109384;1274;41138;-68
2021/12/28 03:59:21;;;;;;;6.00;2.80;;;;;3.50;96864.40;;;;109280;1273;41540;-68
2021/12/28 04:01:50;;;;;;;6.90;3.00;;;;;3.42;96866.00;;;;109292;1274;41141;-65
2021/12/28 04:04:20;;;;;;;6.20;2.70;;;;;3.40;96866.40;;;;109032;1275;41455;-67
2021/12/28 04:06:50;;;;;;;6.20;3.00;;;;;3.32;96864.60;;;;109023;1275;41174;-67
2021/12/28 04:09:34;;;;;;;6.50;2.90;;;;;3.30;96868.60;;;;109189;1273;41283;-69
2021/12/28 04:12:05;;;;;;;5.50;2.60;;;;;3.30;96867.00;;;;109247;1272;41128;-67
2021/12/28 04:14:35;;;;;;;5.80;2.60;;;;;3.30;96868.20;;;;109187;1274;41128;-68
2021/12/28 04:17:05;;;;;;;6.10;2.80;;;;;3.38;96864.00;;;;108953;1275;42194;-67
2021/12/28 04:19:35;;;;;;;5.70;2.70;;;;;3.40;96865.00;;;;109317;1273;41583;-67
2021/12/28 04:22:05;;;;;;;6.60;2.90;;;;;3.40;96863.80;;;;109148;1273;41603;-66
2021/12/28 04:24:35;;;;;;;6.20;2.90;;;;;3.48;96863.80;;;;109255;1274;42084;-66
2021/12/28 04:27:22;;;;;;;6.60;3.00;;;;;3.50;96862.40;;;;109362;1273;41606;-69
2021/12/28 04:29:52;;;;;;;6.20;2.90;;;;;3.50;96865.00;;;;109280;1274;41890;-68
2021/12/28 04:32:22;;;;;;;6.20;2.90;;;;;3.50;96865.60;;;;109015;1275;41757;-67
2021/12/28 04:34:52;;;;;;;6.20;2.90;;;;;3.50;96866.20;;;;109359;1273;41693;-69
2021/12/28 04:37:22;;;;;;;6.90;3.10;;;;;3.54;96861.80;;;;109432;1273;41912;-68
2021/12/28 04:39:51;;;;;;;6.00;2.90;;;;;3.58;96863.00;;;;109261;1274;41131;-70
2021/12/28 04:42:20;;;;;;;6.80;3.00;;;;;3.60;96866.60;;;;109420;1274;41420;-69
2021/12/28 04:44:50;;;;;;;6.70;3.00;;;;;3.60;96870.80;;;;109171;1274;41589;-65
2021/12/28 04:47:20;;;;;;;7.10;3.30;;;;;3.60;96869.60;;;;109231;1274;41478;-66
2021/12/28 04:49:49;;;;;;;7.10;3.10;;;;;3.60;96870.20;;;;109381;1273;41924;-69
2021/12/28 04:52:19;;;;;;;6.20;2.80;;;;;3.60;96868.80;;;;109008;1274;41144;-69
2021/12/28 04:54:48;;;;;;;7.00;3.20;;;;;3.60;96869.20;;;;109280;1275;40910;-70
2021/12/28 04:57:17;;;;;;;5.60;2.80;;;;;3.60;96873.60;;;;109175;1275;41370;-68
2021/12/28 04:59:47;;;;;;;6.00;2.90;;;;;3.60;96877.20;;;;109051;1275;41586;-71
2021/12/28 05:02:16;;;;;;;5.50;2.70;;;;;3.60;96876.00;;;;109180;1275;42199;-70
2021/12/28 05:04:46;;;;;;;6.00;2.80;;;;;3.60;96877.40;;;;108949;1275;41246;-66
2021/12/28 05:07:16;;;;;;;5.60;2.80;;;;;3.60;96878.40;;;;109034;1272;41737;-66
2021/12/28 05:09:45;;;;;;;6.70;3.00;;;;;3.60;96884.20;;;;109244;1274;42643;-69
2021/12/28 05:12:15;;;;;;;7.10;3.00;;;;;3.58;96881.80;;;;108888;1274;41237;-70
2021/12/28 05:14:45;;;;;;;6.70;3.10;;;;;3.50;96876.40;;;;109203;1274;41794;-66
2021/12/28 05:17:15;;;;;;;6.90;3.10;;;;;3.50;96878.60;;;;109027;1275;41150;-66
2021/12/28 05:19:45;;;;;;;6.60;3.10;;;;;3.48;96879.20;;;;109181;1275;41119;-67
2021/12/28 05:22:14;;;;;;;6.20;2.90;;;;;3.50;96877.60;;;;109225;1274;41118;-70
2021/12/28 05:24:45;;;;;;;7.70;3.50;;;;;3.50;96881.00;;;;109241;1274;41888;-67
2021/12/28 05:27:15;;;;;;;7.10;3.50;;;;;3.50;96885.80;;;;109196;1274;41130;-66
2021/12/28 05:29:45;;;;;;;7.50;3.70;;;;;3.50;96886.80;;;;109285;1274;41348;-67
2021/12/28 05:32:15;;;;;;;10.70;4.70;;;;;3.52;96887.40;;;;108958;1274;41249;-69
2021/12/28 05:34:45;;;;;;;9.40;5.10;;;;;3.60;96883.20;;;;108951;1275;41283;-67
2021/12/28 05:37:17;;;;;;;10.50;5.50;;;;;3.52;96884.40;;;;109141;1274;41190;-68
2021/12/28 05:39:47;;;;;;;11.70;5.90;;;;;3.50;96884.00;;;;109215;1272;41401;-66
2021/12/28 05:42:16;;;;;;;9.70;5.00;;;;;3.50;96884.60;;;;108854;1275;41143;-66
2021/12/28 05:44:46;;;;;;;9.90;5.40;;;;;3.50;96887.20;;;;108903;1274;41145;-66
2021/12/28 05:47:16;;;;;;;9.40;4.80;;;;;3.50;96885.80;;;;109010;1275;41124;-68
2021/12/28 05:49:47;;;;;;;9.30;4.90;;;;;3.50;96895.20;;;;108869;1274;41030;-66
2021/12/28 05:52:16;;;;;;;9.80;5.00;;;;;3.50;96891.00;;;;108865;1275;41209;-68
2021/12/28 05:54:45;;;;;;;9.60;5.00;;;;;3.50;96894.00;;;;109063;1274;41259;-67
2021/12/28 05:57:14;;;;;;;9.30;4.70;;;;;3.56;96901.60;;;;108909;1274;41468;-66
2021/12/28 05:59:44;;;;;;;9.40;4.90;;;;;3.56;96902.80;;;;108820;1275;42227;-66
2021/12/28 06:02:13;;;;;;;10.00;5.50;;;;;3.50;96912.40;;;;108987;1275;41799;-66
2021/12/28 06:04:42;;;;;;;14.30;7.80;;;;;3.50;96914.20;;;;109022;1275;41152;-64
2021/12/28 06:07:12;;;;;;;14.60;8.10;;;;;3.40;96920.80;;;;108923;1274;41331;-67
2021/12/28 06:09:42;;;;;;;16.20;8.40;;;;;3.40;96921.80;;;;109139;1275;41138;-66
2021/12/28 06:12:11;;;;;;;18.70;10.10;;;;;3.32;96918.60;;;;109124;1275;42423;-68
2021/12/28 06:14:40;;;;;;;20.40;11.40;;;;;3.30;96926.40;;;;108965;1275;41128;-66
2021/12/28 06:17:10;;;;;;;23.90;12.80;;;;;3.30;96929.00;;;;108871;1275;41150;-67
2021/12/28 06:19:39;;;;;;;22.50;12.80;;;;;3.20;96937.00;;;;108958;1275;41329;-67
2021/12/28 06:22:09;;;;;;;25.40;13.40;;;;;3.10;96942.40;;;;108919;1275;41237;-68
2021/12/28 06:24:38;;;;;;;22.10;12.30;;;;;3.10;96942.00;;;;108854;1275;41125;-70
2021/12/28 06:27:08;;;;;;;23.10;12.20;;;;;3.00;96944.80;;;;108808;1275;41255;-68
2021/12/28 06:29:37;;;;;;;21.20;11.50;;;;;3.00;96944.00;;;;108942;1274;41540;-67
2021/12/28 06:32:07;;;;;;;19.30;10.90;;;;;2.90;96942.20;;;;108940;1275;41847;-68
2021/12/28 06:34:37;;;;;;;17.80;9.50;;;;;2.92;96945.00;;;;108986;1275;41540;-69
2021/12/28 06:37:07;;;;;;;17.10;9.40;;;;;2.98;96944.80;;;;108921;1275;41586;-68
2021/12/28 06:39:36;;;;;;;16.80;8.20;;;;;3.00;96950.60;;;;108994;1275;41878;-68
2021/12/28 06:42:07;;;;;;;16.70;8.40;;;;;3.00;96949.00;;;;109276;1273;41278;-68
2021/12/28 06:44:36;;;;;;;17.50;8.80;;;;;3.00;96956.60;;;;109245;1274;42286;-67
2021/12/28 06:47:06;;;;;;;18.70;10.00;;;;;3.10;96958.60;;;;109166;1275;41145;-68
2021/12/28 06:49:39;;;;;;;18.70;10.00;;;;;3.10;96962.80;;;;108990;1274;41556;-71
2021/12/28 06:52:08;;;;;;;15.70;9.00;;;;;3.10;96963.00;;;;109377;1275;41138;-65
2021/12/28 06:54:39;;;;;;;17.80;9.40;;;;;3.08;96958.80;;;;109249;1275;41133;-67
2021/12/28 06:57:10;;;;;;;19.00;9.90;;;;;3.08;96966.20;;;;109012;1275;41148;-69
2021/12/28 06:59:43;;;;;;;16.40;8.60;;;;;3.00;96972.60;;;;109341;1273;41138;-71
2021/12/28 07:02:14;;;;;;;17.80;9.20;;;;;3.00;96964.80;;;;109249;1273;41185;-68
2021/12/28 07:04:44;;;;;;;16.00;8.80;;;;;3.00;96970.80;;;;109195;1275;41924;-68
2021/12/28 07:07:13;;;;;;;16.30;8.20;;;;;3.00;96973.20;;;;109258;1275;41689;-69
2021/12/28 07:09:42;;;;;;;16.90;9.10;;;;;3.08;96980.60;;;;108996;1273;42631;-68
2021/12/28 07:12:11;;;;;;;16.40;9.10;;;;;3.08;96978.80;;;;109390;1275;41160;-69
2021/12/28 07:14:40;;;;;;;14.20;7.90;;;;;3.10;96990.20;;;;109238;1273;41480;-66
2021/12/28 07:17:09;;;;;;;13.80;7.40;;;;;3.08;96989.60;;;;109205;1275;41132;-66
2021/12/28 07:19:39;;;;;;;15.50;8.80;;;;;3.10;96998.60;;;;109252;1274;41138;-69
2021/12/28 07:22:07;;;;;;;16.60;8.00;;;;;3.10;97000.60;;;;109162;1274;41132;-67
2021/12/28 07:24:36;;;;;;;15.70;8.30;;;;;3.10;97001.80;;;;109242;1274;41242;-66
2021/12/28 07:27:05;;;;;;;14.00;7.70;;;;;3.10;96999.60;;;;109361;1275;41220;-68
2021/12/28 07:29:34;;;;;;;12.80;7.10;;;;;3.10;97006.20;;;;109142;1273;41141;-69
2021/12/28 07:32:06;;;;;;;14.10;7.40;;;;;3.10;97009.40;;;;109350;1275;41346;-70
2021/12/28 07:34:36;;;;;;;14.00;7.60;;;;;3.20;97002.80;;;;109246;1273;41249;-68
2021/12/28 07:37:05;;;;;;;14.00;8.00;;;;;3.12;97008.00;;;;108927;1275;41136;-67
2021/12/28 07:39:34;;;;;;;13.40;7.40;;;;;3.20;97010.80;;;;109391;1273;41246;-66
2021/12/28 07:42:04;;;;;;;11.90;6.20;;;;;3.10;97014.00;;;;109317;1274;41249;-66
2021/12/28 07:44:33;;;;;;;12.10;6.00;;;;;3.10;97010.00;;;;109090;1275;41233;-70
2021/12/28 07:47:04;;;;;;;11.20;5.90;;;;;3.20;97009.40;;;;109311;1271;41206;-69
2021/12/28 07:49:34;;;;;;;11.90;5.80;;;;;3.20;97012.00;;;;109408;1273;41233;-68
2021/12/28 07:52:03;;;;;;;12.40;5.90;;;;;3.30;97010.20;;;;109335;1274;41610;-69
2021/12/28 07:54:32;;;;;;;11.70;5.90;;;;;3.30;97014.00;;;;109232;1275;41237;-68
2021/12/28 07:57:01;;;;;;;11.80;6.30;;;;;3.38;97017.40;;;;109289;1274;41253;-68
2021/12/28 07:59:30;;;;;;;10.70;5.60;;;;;3.40;97019.60;;;;109234;1273;41175;-67
2021/12/28 08:01:59;;;;;;;10.00;5.20;;;;;3.40;97020.20;;;;109179;1273;41447;-69
2021/12/28 08:04:29;;;;;;;10.20;5.30;;;;;3.40;97018.20;;;;109182;1275;41137;-68
2021/12/28 08:06:57;;;;;;;11.20;5.60;;;;;3.46;97016.80;;;;109282;1273;41147;-66
2021/12/28 08:09:26;;;;;;;10.50;5.30;;;;;3.50;97014.00;;;;109307;1275;41623;-66
2021/12/28 08:11:55;;;;;;;10.10;5.60;;;;;3.50;97011.80;;;;109413;1274;41240;-66
2021/12/28 08:14:24;;;;;;;11.10;5.50;;;;;3.60;97011.40;;;;109292;1274;41138;-67
2021/12/28 08:16:54;;;;;;;11.90;6.60;;;;;3.64;97020.80;;;;109296;1275;41150;-67
2021/12/28 08:19:23;;;;;;;12.70;6.00;;;;;3.60;97016.00;;;;109368;1273;41265;-67
2021/12/28 08:21:52;;;;;;;10.80;5.60;;;;;3.54;97015.40;;;;109324;1274;41451;-69
2021/12/28 08:24:21;;;;;;;11.30;5.90;;;;;3.54;97015.80;;;;109301;1274;41882;-68
2021/12/28 08:26:50;;;;;;;11.90;5.90;;;;;3.60;97015.20;;;;109310;1275;41142;-66
2021/12/28 08:29:19;;;;;;;10.50;5.60;;;;;3.60;97015.60;;;;109193;1273;41234;-67
2021/12/28 08:31:48;;;;;;;10.90;5.70;;;;;3.70;97014.40;;;;109309;1273;41371;-68
2021/12/28 08:34:17;;;;;;;13.50;7.20;;;;;3.78;97014.20;;;;109437;1273;42936;-68
2021/12/28 08:36:46;;;;;;;11.00;5.70;;;;;3.72;97024.20;;;;109038;1274;41404;-68
2021/12/28 08:39:17;;;;;;;11.70;6.20;;;;;3.70;97023.00;;;;109123;1275;41258;-66
2021/12/28 08:41:46;;;;;;;11.30;5.60;;;;;3.80;97020.40;;;;109260;1273;41146;-66
2021/12/28 08:44:15;;;;;;;10.40;5.50;;;;;3.80;97019.60;;;;109339;1274;41140;-66
2021/12/28 08:46:45;;;;;;;11.80;5.60;;;;;3.90;97014.00;;;;109324;1271;41144;-69
2021/12/28 08:49:15;;;;;;;13.80;6.70;;;;;3.98;97014.00;;;;109393;1274;41259;-67
2021/12/28 08:51:44;;;;;;;12.80;6.00;;;;;4.10;97014.00;;;;105208;1275;5225611;-69
2021/12/28 08:54:13;;;;;;;11.80;5.80;;;;;4.20;97013.00;;;;109106;1275;41514;-69
2021/12/28 08:56:42;;;;;;;13.50;6.60;;;;;4.30;97010.00;;;;109342;1273;41300;-70
2021/12/28 08:59:11;;;;;;;11.60;5.90;;;;;4.48;97003.80;;;;109305;1273;41717;-69
2021/12/28 09:01:40;;;;;;;12.30;6.50;;;;;4.60;96996.40;;;;109313;1274;41414;-69
2021/12/28 09:04:09;;;;;;;11.50;5.90;;;;;4.76;97000.00;;;;109335;1273;41160;-66
2021/12/28 09:06:38;;;;;;;11.50;5.10;;;;;4.90;96995.80;;;;109286;1273;41252;-66
2021/12/28 09:09:08;;;;;;;11.50;5.40;;;;;5.10;96995.00;;;;109196;1274;41144;-66
2021/12/28 09:11:37;;;;;;;10.10;5.30;;;;;5.30;96990.40;;;;109154;1274;41609;-66
2021/12/28 09:14:06;;;;;;;10.10;4.60;;;;;5.50;96983.40;;;;109180;1275;41881;-67
2021/12/28 09:16:36;;;;;;;8.90;4.20;;;;;5.74;96976.00;;;;108954;1274;40769;-66
2021/12/28 09:19:05;;;;;;;8.50;4.20;;;;;6.00;96976.80;;;;109202;1274;42086;-67
2021/12/28 09:21:34;;;;;;;9.40;4.20;;;;;6.24;96964.60;;;;109205;1274;41138;-67
2021/12/28 09:24:04;;;;;;;8.30;4.10;;;;;6.44;96953.40;;;;109180;1274;41934;-67
2021/12/28 09:26:53;;;;;;;8.30;4.00;;;;;7.60;96932.80;;;;109040;1274;41985;-67
2021/12/28 09:29:25;;;;;;;7.90;3.90;;;;;8.70;96934.00;;;;109297;1273;41135;-68
2021/12/28 09:31:54;;;;;;;8.20;3.90;;;;;9.32;96930.40;;;;109278;1274;41589;-65
2021/12/28 09:34:25;;;;;;;8.60;3.80;;;;;10.04;96932.60;;;;109318;1273;40986;-66
2021/12/28 09:36:58;;;;;;;8.50;4.00;;;;;10.40;96931.00;;;;109301;1274;41249;-67
2021/12/28 09:39:28;;;;;;;8.70;4.00;;;;;10.30;96931.20;;;;109038;1274;41413;-65
2021/12/28 09:42:00;;;;;;;7.80;3.60;;;;;9.98;96937.20;;;;108982;1275;41142;-66
2021/12/28 09:44:32;;;;;;;7.40;3.50;;;;;9.62;96935.40;;;;108949;1275;41246;-65
2021/12/28 09:47:03;;;;;;;7.80;3.60;;;;;9.36;96933.80;;;;109013;1275;41144;-65
2021/12/28 09:49:33;;;;;;;7.80;3.70;;;;;9.08;96939.60;;;;108915;1275;41128;-67
2021/12/28 09:52:04;;;;;;;8.60;4.30;;;;;8.80;96941.60;;;;109015;1274;41118;-66
2021/12/28 09:54:34;;;;;;;8.00;3.90;;;;;8.52;96943.60;;;;109030;1273;41269;-68
2021/12/28 09:57:03;;;;;;;7.90;3.70;;;;;8.24;96942.00;;;;109183;1273;41176;-67
2021/12/28 09:59:33;;;;;;;7.60;3.30;;;;;8.00;96942.80;;;;109179;1274;41253;-69
2021/12/28 10:02:08;;;;;;;7.90;3.60;;;;;7.70;96944.60;;;;109144;1275;41158;-69
2021/12/28 10:05:04;;;;;;;7.90;3.80;;;;;7.42;96947.60;;;;109158;1274;41249;-68
2021/12/28 10:07:37;;;;;;;8.50;4.10;;;;;7.20;96949.80;;;;109112;1273;41792;-66
2021/12/28 10:10:07;;;;;;;10.20;4.80;;;;;7.00;96952.00;;;;109202;1273;41137;-68
2021/12/28 10:12:38;;;;;;;9.80;4.80;;;;;6.80;96946.40;;;;109201;1274;41490;-70
2021/12/28 10:15:10;;;;;;;8.90;4.30;;;;;6.70;96943.80;;;;109231;1275;41873;-65
2021/12/28 10:17:42;;;;;;;8.30;3.80;;;;;6.60;96942.00;;;;109082;1274;41156;-66
2021/12/28 10:20:15;;;;;;;7.80;3.60;;;;;6.50;96941.00;;;;109111;1274;41128;-66
2021/12/28 10:22:49;;;;;;;7.60;3.30;;;;;6.34;96941.40;;;;109176;1275;41551;-66
2021/12/28 10:25:23;;;;;;;6.70;3.20;;;;;6.30;96937.80;;;;109150;1274;41158;-67
2021/12/28 10:27:58;;;;;;;12.30;4.50;;;;;6.22;96937.80;;;;109174;1274;41173;-67
2021/12/28 10:30:30;;;;;;;13.00;5.20;;;;;6.20;96942.80;;;;109179;1273;42380;-66
2021/12/28 10:33:04;;;;;;;9.10;4.30;;;;;6.16;96943.00;;;;108943;1275;42397;-68
2021/12/28 10:35:40;;;;;;;8.10;3.50;;;;;6.10;96945.00;;;;109175;1274;41144;-66
2021/12/28 10:38:13;;;;;;;7.10;3.40;;;;;6.10;96941.00;;;;109089;1275;41328;-66
2021/12/28 10:40:44;;;;;;;11.90;5.20;;;;;6.10;96941.40;;;;109192;1273;41147;-67
2021/12/28 10:43:19;;;;;;;15.70;6.50;;;;;6.04;96932.00;;;;109192;1274;42723;-66
2021/12/28 10:45:59;;;;;;;14.90;7.00;;;;;6.00;96937.80;;;;108977;1274;41145;-67
2021/12/28 10:48:34;;;;;;;12.50;6.20;;;;;6.00;96932.40;;;;109036;1274;42362;-66
2021/12/28 10:51:12;;;;;;;19.10;7.80;;;;;5.90;96928.40;;;;108900;1275;42629;-68
2021/12/28 10:54:06;;;;;;;13.40;5.80;;;;;5.90;96930.80;;;;108975;1275;41145;-66
2021/12/28 10:56:47;;;;;;;12.50;5.70;;;;;5.90;96942.60;;;;109080;1275;41597;-67
2021/12/28 10:59:22;;;;;;;9.10;4.20;;;;;5.90;96943.60;;;;109174;1274;41125;-67
2021/12/28 11:01:54;;;;;;;9.70;4.70;;;;;5.88;96938.60;;;;109213;1275;41140;-67
2021/12/28 11:04:30;;;;;;;9.50;4.60;;;;;5.80;96934.20;;;;109165;1274;41592;-67
2021/12/28 11:07:04;;;;;;;9.60;4.50;;;;;5.80;96936.60;;;;109016;1275;41136;-66
2021/12/28 11:09:33;;;;;;;8.50;4.20;;;;;5.70;96935.00;;;;108961;1275;41870;-67
2021/12/28 11:12:03;;;;;;;9.00;4.40;;;;;5.70;96931.80;;;;109152;1275;41422;-67
2021/12/28 11:14:34;;;;;;;9.10;5.00;;;;;5.70;96936.20;;;;109154;1275;41135;-67
2021/12/28 11:17:04;;;;;;;10.20;5.20;;;;;5.60;96936.80;;;;109008;1274;41637;-67
2021/12/28 11:19:37;;;;;;;9.40;4.20;;;;;5.60;96943.40;;;;109169;1274;41263;-67
2021/12/28 11:22:11;;;;;;;8.40;4.20;;;;;5.50;96937.20;;;;109170;1275;41961;-65
2021/12/28 11:24:47;;;;;;;9.00;4.20;;;;;5.50;96944.00;;;;109152;1272;42989;-66
2021/12/28 11:27:27;;;;;;;8.30;4.20;;;;;5.50;96946.60;;;;109171;1275;41139;-68
2021/12/28 11:29:59;;;;;;;8.30;4.10;;;;;5.44;96946.00;;;;109262;1274;42382;-66
2021/12/28 11:32:29;;;;;;;8.80;4.20;;;;;5.40;96940.40;;;;109244;1273;41131;-65
2021/12/28 11:34:58;;;;;;;8.70;4.30;;;;;5.40;96942.80;;;;109173;1272;41250;-66
2021/12/28 11:37:31;;;;;;;8.60;4.70;;;;;5.40;96939.00;;;;109192;1273;42374;-68
2021/12/28 11:40:08;;;;;;;10.00;5.10;;;;;5.40;96937.60;;;;108906;1274;41138;-68
2021/12/28 11:42:37;;;;;;;9.00;4.40;;;;;5.40;96940.40;;;;109120;1272;41623;-68
2021/12/28 11:45:08;;;;;;;9.40;4.70;;;;;5.40;96938.00;;;;108975;1273;41140;-68
2021/12/28 11:47:39;;;;;;;9.60;5.10;;;;;5.38;96936.40;;;;109217;1273;41341;-66
2021/12/28 11:50:11;;;;;;;10.60;5.30;;;;;5.32;96937.80;;;;109002;1275;41256;-68
2021/12/28 11:52:39;;;;;;;8.90;4.70;;;;;5.30;96939.80;;;;109287;1272;41620;-69
2021/12/28 11:55:09;;;;;;;9.90;5.00;;;;;5.30;96942.40;;;;109258;1274;41257;-69
2021/12/28 11:57:50;;;;;;;10.90;5.50;;;;;5.30;96943.40;;;;109283;1273;41145;-71
2021/12/28 12:00:22;;;;;;;9.30;5.30;;;;;5.30;96942.80;;;;109185;1272;42580;-67
2021/12/28 12:02:54;;;;;;;10.40;5.30;;;;;5.28;96942.80;;;;109280;1274;42092;-68
2021/12/28 12:05:28;;;;;;;10.50;5.80;;;;;5.20;96940.00;;;;109280;1272;41245;-68
2021/12/28 12:08:06;;;;;;;11.00;5.70;;;;;5.20;96941.80;;;;109333;1274;41935;-70
2021/12/28 12:10:37;;;;;;;9.40;5.20;;;;;5.20;96947.20;;;;109153;1274;41838;-69
2021/12/28 12:13:15;;;;;;;10.60;5.50;;;;;5.20;96937.40;;;;109297;1273;41554;-69
2021/12/28 12:15:47;;;;;;;10.60;4.90;;;;;5.20;96945.00;;;;109109;1272;41436;-71
2021/12/28 12:18:18;;;;;;;10.60;5.20;;;;;5.20;96941.80;;;;109369;1273;41129;-66
2021/12/28 12:21:02;;;;;;;9.90;4.90;;;;;5.18;96945.00;;;;109264;1273;41139;-66
2021/12/28 12:23:46;;;;;;;9.70;4.80;;;;;5.20;96944.00;;;;109080;1274;40918;-66
2021/12/28 12:26:24;;;;;;;9.90;5.20;;;;;5.20;96944.20;;;;109282;1273;41147;-68
2021/12/28 12:28:54;;;;;;;10.20;4.90;;;;;5.14;96941.00;;;;109293;1273;41199;-66
2021/12/28 12:31:33;;;;;;;9.00;4.70;;;;;5.14;96943.40;;;;109235;1274;41239;-67
2021/12/28 12:34:04;;;;;;;8.60;4.40;;;;;5.10;96942.40;;;;109288;1273;41259;-69